createdAt,value
2019-03-28T00:01:30.516Z,15.83
2019-03-28T00:04:04.213Z,13.27
2019-03-28T00:06:41.743Z,11.77
2019-03-28T00:09:13.854Z,11.83
2019-03-28T00:11:45.895Z,15.20
2019-03-28T00:14:17.866Z,17.23
2019-03-28T00:16:49.873Z,16.03
2019-03-28T00:19:25.004Z,15.67
2019-03-28T00:21:57.112Z,12.73
2019-03-28T00:24:47.262Z,17.93
2019-03-28T00:27:19.220Z,14.10
2019-03-28T00:29:52.157Z,16.40
2019-03-28T00:32:26.317Z,15.73
2019-03-28T00:34:58.469Z,14.73
2019-03-28T00:37:30.819Z,12.03
2019-03-28T00:40:02.766Z,15.17
2019-03-28T00:42:35.145Z,11.67
2019-03-28T00:45:08.282Z,14.30
2019-03-28T00:47:46.965Z,12.53
2019-03-28T00:50:19.015Z,13.30
2019-03-28T00:52:51.002Z,12.90
2019-03-28T00:55:23.343Z,13.60
2019-03-28T00:57:55.383Z,11.87
2019-03-28T01:00:27.432Z,9.97
2019-03-28T01:02:59.397Z,11.63
2019-03-28T01:05:31.393Z,15.43
2019-03-28T01:08:03.325Z,13.30
2019-03-28T01:10:36.868Z,15.23
2019-03-28T01:13:08.801Z,13.90
2019-03-28T01:15:40.963Z,14.07
2019-03-28T01:18:15.098Z,13.87
2019-03-28T01:20:47.155Z,11.23
2019-03-28T01:23:19.166Z,12.33
2019-03-28T01:25:51.107Z,11.87
2019-03-28T01:28:23.195Z,12.87
2019-03-28T01:30:55.326Z,12.20
2019-03-28T01:33:27.403Z,13.30
2019-03-28T01:35:59.355Z,11.70
2019-03-28T01:38:31.375Z,11.80
2019-03-28T01:41:03.486Z,12.43
2019-03-28T01:43:38.077Z,11.90
2019-03-28T01:46:10.074Z,13.57
2019-03-28T01:48:42.072Z,11.23
2019-03-28T01:51:14.308Z,14.17
2019-03-28T01:53:46.334Z,13.60
2019-03-28T01:56:18.525Z,12.70
2019-03-28T01:58:50.476Z,16.33
2019-03-28T02:01:24.091Z,9.37
2019-03-28T02:03:56.097Z,11.93
2019-03-28T02:06:32.221Z,14.10
2019-03-28T02:09:07.704Z,10.77
2019-03-28T02:11:42.191Z,11.60
2019-03-28T02:14:14.180Z,10.23
2019-03-28T02:16:47.096Z,11.90
2019-03-28T02:19:19.355Z,12.83
2019-03-28T02:21:53.473Z,10.27
2019-03-28T02:24:26.239Z,11.30
2019-03-28T02:27:01.583Z,10.23
2019-03-28T02:29:33.607Z,12.33
2019-03-28T02:32:05.718Z,10.47
2019-03-28T02:34:37.719Z,12.10
2019-03-28T02:37:09.656Z,10.27
2019-03-28T02:39:44.586Z,11.53
2019-03-28T02:42:16.667Z,11.27
2019-03-28T02:44:49.611Z,11.47
2019-03-28T02:47:22.873Z,12.87
2019-03-28T02:49:55.089Z,10.03
2019-03-28T02:52:27.122Z,8.60
2019-03-28T02:54:59.097Z,11.50
2019-03-28T02:57:40.853Z,10.33
2019-03-28T03:00:04.959Z,7.87
2019-03-28T03:02:38.258Z,8.10
2019-03-28T03:05:10.318Z,9.10
2019-03-28T03:07:42.269Z,9.63
2019-03-28T03:10:14.418Z,8.57
2019-03-28T03:12:46.378Z,10.23
2019-03-28T03:15:18.427Z,9.27
2019-03-28T03:17:50.409Z,10.67
2019-03-28T03:20:22.412Z,8.03
2019-03-28T03:22:54.607Z,9.17
2019-03-28T03:25:26.845Z,8.17
2019-03-28T03:27:59.465Z,8.57
2019-03-28T03:30:33.299Z,8.37
2019-03-28T03:33:05.405Z,9.07
2019-03-28T03:35:37.423Z,9.27
2019-03-28T03:38:09.417Z,8.07
2019-03-28T03:40:41.274Z,10.07
2019-03-28T03:43:13.226Z,8.90
2019-03-28T03:45:52.595Z,8.97
2019-03-28T03:48:25.526Z,11.23
2019-03-28T03:50:57.451Z,8.37
2019-03-28T03:53:29.444Z,9.50
2019-03-28T03:56:01.450Z,8.83
2019-03-28T03:58:33.534Z,11.07
2019-03-28T04:01:05.563Z,8.60
2019-03-28T04:03:37.545Z,8.97
2019-03-28T04:06:09.623Z,9.33
2019-03-28T04:08:45.745Z,8.17
2019-03-28T04:11:22.254Z,7.63
2019-03-28T04:13:54.348Z,8.93
2019-03-28T04:16:26.425Z,11.93
2019-03-28T04:18:58.441Z,10.73
2019-03-28T04:21:30.492Z,9.33
2019-03-28T04:24:02.391Z,10.03
2019-03-28T04:26:34.436Z,9.50
2019-03-28T04:29:06.624Z,10.87
2019-03-28T04:31:38.621Z,10.00
2019-03-28T04:34:10.513Z,9.90
2019-03-28T04:36:42.750Z,10.57
2019-03-28T04:39:14.734Z,9.97
2019-03-28T04:41:46.742Z,10.83
2019-03-28T04:44:20.251Z,9.27
2019-03-28T04:46:59.300Z,11.17
2019-03-28T04:49:31.541Z,10.17
2019-03-28T04:52:04.969Z,9.60
2019-03-28T04:54:36.979Z,10.27
2019-03-28T04:57:09.064Z,10.07
2019-03-28T04:59:41.466Z,9.63
2019-03-28T05:02:18.457Z,9.33
2019-03-28T05:04:51.881Z,10.63
2019-03-28T05:07:24.150Z,9.87
2019-03-28T05:09:56.223Z,11.83
2019-03-28T05:12:29.360Z,12.40
2019-03-28T05:15:01.260Z,11.43
2019-03-28T05:17:33.293Z,13.17
2019-03-28T05:20:05.785Z,11.90
2019-03-28T05:22:37.929Z,10.67
2019-03-28T05:25:10.015Z,10.00
2019-03-28T05:27:42.033Z,9.13
2019-03-28T05:30:14.223Z,12.67
2019-03-28T05:32:46.147Z,10.20
2019-03-28T05:35:18.101Z,12.70
2019-03-28T05:37:52.723Z,11.27
2019-03-28T05:40:24.823Z,9.13
2019-03-28T05:42:56.967Z,8.77
2019-03-28T05:45:28.956Z,10.43
2019-03-28T05:48:00.867Z,12.77
2019-03-28T05:50:34.003Z,9.77
2019-03-28T05:53:05.939Z,9.90
2019-03-28T05:55:37.985Z,8.70
2019-03-28T05:58:10.027Z,8.33
2019-03-28T06:00:42.090Z,9.00
2019-03-28T06:03:14.155Z,11.73
2019-03-28T06:05:46.165Z,10.47
2019-03-28T06:08:18.225Z,12.83
2019-03-28T06:10:50.225Z,10.90
2019-03-28T06:13:22.166Z,10.53
2019-03-28T06:15:54.248Z,11.00
2019-03-28T06:18:28.836Z,11.00
2019-03-28T06:21:00.714Z,11.70
2019-03-28T06:23:32.733Z,11.10
2019-03-28T06:26:04.741Z,13.03
2019-03-28T06:28:36.688Z,12.13
2019-03-28T06:31:08.673Z,16.07
2019-03-28T06:33:40.720Z,11.00
2019-03-28T06:36:12.675Z,10.37
2019-03-28T06:38:44.669Z,11.03
2019-03-28T06:41:16.758Z,9.83
2019-03-28T06:43:50.138Z,11.43
2019-03-28T06:46:22.222Z,10.20
2019-03-28T06:48:55.326Z,13.23
2019-03-28T06:51:27.561Z,10.93
2019-03-28T06:53:59.519Z,9.27
2019-03-28T06:56:31.530Z,14.13
2019-03-28T06:59:06.194Z,12.27
2019-03-28T07:01:38.257Z,11.90
2019-03-28T07:04:10.248Z,10.27
2019-03-28T07:06:42.329Z,12.63
2019-03-28T07:09:14.293Z,10.17
2019-03-28T07:11:46.318Z,11.33
2019-03-28T07:14:22.093Z,11.77
2019-03-28T07:16:55.265Z,9.33
2019-03-28T07:19:27.343Z,11.90
2019-03-28T07:22:01.033Z,11.27
2019-03-28T07:24:34.617Z,10.97
2019-03-28T07:27:06.606Z,11.53
2019-03-28T07:29:50.716Z,13.63
2019-03-28T07:32:15.125Z,12.63
2019-03-28T07:34:48.645Z,11.90
2019-03-28T07:37:20.720Z,13.57
2019-03-28T07:39:58.759Z,10.80
2019-03-28T07:42:30.759Z,10.43
2019-03-28T07:45:04.040Z,10.33
2019-03-28T07:47:38.093Z,10.57
2019-03-28T07:50:13.030Z,14.20
2019-03-28T07:52:48.310Z,9.97
2019-03-28T07:55:22.950Z,12.80
2019-03-28T07:57:58.147Z,13.60
2019-03-28T08:00:31.899Z,10.47
2019-03-28T08:03:04.026Z,11.47
2019-03-28T08:05:36.075Z,10.73
2019-03-28T08:08:08.025Z,13.40
2019-03-28T08:10:42.516Z,9.40
2019-03-28T08:13:14.582Z,9.93
2019-03-28T08:15:46.503Z,10.20
2019-03-28T08:18:23.651Z,8.53
2019-03-28T08:20:57.830Z,7.93
2019-03-28T08:23:29.898Z,10.73
2019-03-28T08:26:01.866Z,8.97
2019-03-28T08:28:33.998Z,7.43
2019-03-28T08:31:05.948Z,8.43
2019-03-28T08:33:41.682Z,9.37
2019-03-28T08:36:17.462Z,10.13
2019-03-28T08:38:52.154Z,9.80
2019-03-28T08:41:24.260Z,9.40
2019-03-28T08:43:56.232Z,14.97
2019-03-28T08:46:28.278Z,7.47
2019-03-28T08:49:00.351Z,13.07
2019-03-28T08:51:32.750Z,7.00
2019-03-28T08:54:05.061Z,9.30
2019-03-28T08:56:37.018Z,7.47
2019-03-28T08:59:10.081Z,12.40
2019-03-28T09:01:42.163Z,8.10
2019-03-28T09:04:14.147Z,10.00
2019-03-28T09:06:46.257Z,10.97
2019-03-28T09:09:21.031Z,8.63
2019-03-28T09:11:54.386Z,9.00
2019-03-28T09:14:26.282Z,8.37
2019-03-28T09:16:58.483Z,11.80
2019-03-28T09:19:31.888Z,8.63
2019-03-28T09:22:04.027Z,8.47
2019-03-28T09:24:37.202Z,7.67
2019-03-28T09:27:09.232Z,9.07
2019-03-28T09:29:41.257Z,10.33
2019-03-28T09:32:13.481Z,8.20
2019-03-28T09:34:48.601Z,8.73
2019-03-28T09:37:23.323Z,7.97
2019-03-28T09:39:55.678Z,10.90
2019-03-28T09:42:27.704Z,11.17
2019-03-28T09:44:59.736Z,9.40
2019-03-28T09:47:39.075Z,7.83
2019-03-28T09:50:12.226Z,7.27
2019-03-28T09:52:44.283Z,9.50
2019-03-28T09:55:20.991Z,9.30
2019-03-28T09:57:53.204Z,8.60
2019-03-28T10:00:25.669Z,6.80
2019-03-28T10:02:58.056Z,5.57
2019-03-28T10:05:30.352Z,6.40
2019-03-28T10:08:02.823Z,9.93
2019-03-28T10:10:35.175Z,7.50
2019-03-28T10:13:07.345Z,9.83
2019-03-28T10:15:41.355Z,9.83
2019-03-28T10:18:14.732Z,8.80
2019-03-28T10:20:49.159Z,10.63
2019-03-28T10:23:21.029Z,8.83
2019-03-28T10:25:53.346Z,8.50
2019-03-28T10:28:27.220Z,7.67
2019-03-28T10:30:59.245Z,5.97
2019-03-28T10:33:31.465Z,4.57
2019-03-28T10:36:04.203Z,4.33
2019-03-28T10:38:36.655Z,7.20
2019-03-28T10:41:13.348Z,4.20
2019-03-28T10:43:48.305Z,2.90
2019-03-28T10:46:20.545Z,3.60
2019-03-28T10:48:54.855Z,4.70
2019-03-28T10:51:27.011Z,3.53
2019-03-28T10:53:59.352Z,2.33
2019-03-28T10:56:31.491Z,1.90
2019-03-28T10:59:22.359Z,3.60
2019-03-28T11:01:50.040Z,3.17
2019-03-28T11:04:19.070Z,2.40
2019-03-28T11:06:51.295Z,2.30
2019-03-28T11:09:24.560Z,2.63
2019-03-28T11:11:56.773Z,3.70
2019-03-28T11:14:32.452Z,5.20
2019-03-28T11:17:04.525Z,9.17
2019-03-28T11:19:37.511Z,5.07
2019-03-28T11:22:09.703Z,4.37
2019-03-28T11:24:41.923Z,2.90
2019-03-28T11:27:14.093Z,3.37
2019-03-28T11:29:50.136Z,2.33
2019-03-28T11:32:22.130Z,2.87
2019-03-28T11:34:54.193Z,3.23
2019-03-28T11:37:28.084Z,3.40
2019-03-28T11:40:02.933Z,3.03
2019-03-28T11:42:35.239Z,2.73
2019-03-28T11:45:09.636Z,5.20
2019-03-28T11:47:46.873Z,4.07
2019-03-28T11:50:19.284Z,4.50
2019-03-28T11:52:51.310Z,3.33
2019-03-28T11:55:23.345Z,2.60
2019-03-28T11:57:56.614Z,2.30
2019-03-28T12:00:29.526Z,2.17
2019-03-28T12:03:02.775Z,2.90
2019-03-28T12:05:34.780Z,1.57
2019-03-28T12:08:06.801Z,2.57
2019-03-28T12:10:38.880Z,2.20
2019-03-28T12:13:12.481Z,2.13
2019-03-28T12:15:44.556Z,2.33
2019-03-28T12:18:16.594Z,1.57
2019-03-28T12:20:48.779Z,3.50
2019-03-28T12:23:21.107Z,4.63
2019-03-28T12:25:53.359Z,2.23
2019-03-28T12:28:27.488Z,4.63
2019-03-28T12:30:59.459Z,4.83
2019-03-28T12:33:32.038Z,2.80
2019-03-28T12:36:04.548Z,3.53
2019-03-28T12:38:37.730Z,3.73
2019-03-28T12:41:11.681Z,3.17
2019-03-28T12:43:44.136Z,7.23
2019-03-28T12:46:16.478Z,5.17
2019-03-28T12:48:53.106Z,4.17
2019-03-28T12:51:26.589Z,3.07
2019-03-28T12:54:00.454Z,1.90
2019-03-28T12:56:32.698Z,3.43
2019-03-28T12:59:05.046Z,1.33
2019-03-28T13:01:42.350Z,2.40
2019-03-28T13:04:14.760Z,2.57
2019-03-28T13:06:46.850Z,3.13
2019-03-28T13:09:20.283Z,2.30
2019-03-28T13:11:52.882Z,3.33
2019-03-28T13:14:25.285Z,4.93
2019-03-28T13:17:02.819Z,3.83
2019-03-28T13:19:34.888Z,3.13
2019-03-28T13:22:08.699Z,4.20
2019-03-28T13:24:40.879Z,2.20
2019-03-28T13:27:13.087Z,3.10
2019-03-28T13:29:45.423Z,2.63
2019-03-28T13:32:17.407Z,4.67
2019-03-28T13:34:49.642Z,3.23
2019-03-28T13:37:21.810Z,1.37
2019-03-28T13:39:54.122Z,3.60
2019-03-28T13:42:26.292Z,2.90
2019-03-28T13:44:58.511Z,4.30
2019-03-28T13:47:30.830Z,3.13
2019-03-28T13:50:02.934Z,3.13
2019-03-28T13:52:35.532Z,2.50
2019-03-28T13:55:07.688Z,3.23
2019-03-28T13:57:43.096Z,3.37
2019-03-28T14:00:17.339Z,3.57
2019-03-28T14:02:58.590Z,4.20
2019-03-28T14:05:26.193Z,2.40
2019-03-28T14:07:59.448Z,3.30
2019-03-28T14:10:35.193Z,4.63
2019-03-28T14:13:07.329Z,4.37
2019-03-28T14:15:42.414Z,2.30
2019-03-28T14:18:16.072Z,5.00
2019-03-28T14:20:50.599Z,4.83
2019-03-28T14:23:22.836Z,3.23
2019-03-28T14:25:55.076Z,4.40
2019-03-28T14:28:27.427Z,3.43
2019-03-28T14:31:03.315Z,4.50
2019-03-28T14:33:35.682Z,4.87
2019-03-28T14:36:10.691Z,3.87
2019-03-28T14:38:42.917Z,4.73
2019-03-28T14:41:14.887Z,3.00
2019-03-28T14:43:46.844Z,2.47
2019-03-28T14:46:19.009Z,3.00
2019-03-28T14:48:52.596Z,3.60
2019-03-28T14:51:24.666Z,2.23
2019-03-28T14:53:56.727Z,5.90
2019-03-28T14:56:29.366Z,4.23
2019-03-28T14:59:02.589Z,4.40
2019-03-28T15:01:34.789Z,3.47
2019-03-28T15:04:06.929Z,3.57
2019-03-28T15:06:39.249Z,3.47
2019-03-28T15:09:11.514Z,4.67
2019-03-28T15:11:43.785Z,3.53
2019-03-28T15:14:15.814Z,3.37
2019-03-28T15:16:48.079Z,5.40
2019-03-28T15:19:20.131Z,2.70
2019-03-28T15:21:58.555Z,4.53
2019-03-28T15:24:31.554Z,4.60
2019-03-28T15:27:06.487Z,4.83
2019-03-28T15:29:38.519Z,5.07
2019-03-28T15:32:10.583Z,4.27
2019-03-28T15:34:43.011Z,5.10
2019-03-28T15:37:15.235Z,4.07
2019-03-28T15:39:47.379Z,4.30
2019-03-28T15:42:19.767Z,5.37
2019-03-28T15:44:51.973Z,6.20
2019-03-28T15:47:24.219Z,4.57
2019-03-28T15:49:56.933Z,4.33
2019-03-28T15:52:29.192Z,5.53
2019-03-28T15:55:05.517Z,6.70
2019-03-28T15:57:40.723Z,3.20
2019-03-28T16:00:12.669Z,5.60
2019-03-28T16:02:44.894Z,5.40
2019-03-28T16:05:17.174Z,7.80
2019-03-28T16:07:49.563Z,6.93
2019-03-28T16:10:22.076Z,4.70
2019-03-28T16:12:54.439Z,6.33
2019-03-28T16:15:26.663Z,3.73
2019-03-28T16:17:58.715Z,5.83
2019-03-28T16:20:30.923Z,4.53
2019-03-28T16:23:05.170Z,4.40
2019-03-28T16:25:37.182Z,4.87
2019-03-28T16:28:09.227Z,3.27
2019-03-28T16:30:41.353Z,6.23
2019-03-28T16:33:13.471Z,4.57
2019-03-28T16:35:45.599Z,4.87
2019-03-28T16:38:17.522Z,3.80
2019-03-28T16:40:49.579Z,4.30
2019-03-28T16:43:26.052Z,3.53
2019-03-28T16:45:57.845Z,4.07
2019-03-28T16:48:29.907Z,4.40
2019-03-28T16:51:01.878Z,5.23
2019-03-28T16:53:35.594Z,6.60
2019-03-28T16:56:08.919Z,6.33
2019-03-28T16:58:41.205Z,5.00
2019-03-28T17:01:13.451Z,8.23
2019-03-28T17:03:45.775Z,6.17
2019-03-28T17:06:18.508Z,4.70
2019-03-28T17:08:52.855Z,6.23
2019-03-28T17:11:30.355Z,5.70
2019-03-28T17:14:04.863Z,6.53
2019-03-28T17:16:42.859Z,8.90
2019-03-28T17:19:16.395Z,6.07
2019-03-28T17:21:50.590Z,11.57
2019-03-28T17:24:22.891Z,8.77
2019-03-28T17:26:56.343Z,9.43
2019-03-28T17:29:28.543Z,7.33
2019-03-28T17:32:00.762Z,8.07
2019-03-28T17:34:35.344Z,7.90
2019-03-28T17:37:06.999Z,6.10
2019-03-28T17:39:38.994Z,5.03
2019-03-28T17:42:10.956Z,5.80
2019-03-28T17:44:43.075Z,5.93
2019-03-28T17:47:15.090Z,3.93
2019-03-28T17:49:48.152Z,6.57
2019-03-28T17:52:20.499Z,7.27
2019-03-28T17:54:52.501Z,8.73
2019-03-28T17:57:33.778Z,15.00
2019-03-28T18:00:06.537Z,9.07
2019-03-28T18:02:38.604Z,7.97
2019-03-28T18:05:15.238Z,4.73
2019-03-28T18:07:48.296Z,4.57
2019-03-28T18:10:20.400Z,6.57
2019-03-28T18:12:52.458Z,5.57
2019-03-28T18:15:24.489Z,8.43
2019-03-28T18:17:56.621Z,9.13
2019-03-28T18:20:30.160Z,11.00
2019-03-28T18:23:04.387Z,11.13
2019-03-28T18:25:38.038Z,12.13
2019-03-28T18:28:09.992Z,13.20
2019-03-28T18:30:43.583Z,12.77
2019-03-28T18:33:15.597Z,12.90
2019-03-28T18:35:48.041Z,17.10
2019-03-28T18:38:20.028Z,16.63
2019-03-28T18:40:52.067Z,13.47
2019-03-28T18:43:26.763Z,17.67
2019-03-28T18:45:59.861Z,13.70
2019-03-28T18:48:36.491Z,12.80
2019-03-28T18:51:08.930Z,13.57
2019-03-28T18:53:40.995Z,10.93
2019-03-28T18:56:13.077Z,11.50
2019-03-28T18:58:45.214Z,9.10
2019-03-28T19:01:17.244Z,11.27
2019-03-28T19:03:49.219Z,13.33
2019-03-28T19:06:22.243Z,16.97
2019-03-28T19:08:54.162Z,13.80
2019-03-28T19:11:26.569Z,13.70
2019-03-28T19:13:59.827Z,11.73
2019-03-28T19:16:32.824Z,12.20
2019-03-28T19:19:05.005Z,12.70
2019-03-28T19:21:37.078Z,17.17
2019-03-28T19:24:09.335Z,13.80
2019-03-28T19:26:41.345Z,15.20
2019-03-28T19:29:13.384Z,11.90
2019-03-28T19:31:45.524Z,13.33
2019-03-28T19:34:17.885Z,17.73
2019-03-28T19:36:50.994Z,14.93
2019-03-28T19:39:30.771Z,16.70
2019-03-28T19:42:04.465Z,18.83
2019-03-28T19:44:36.549Z,17.23
2019-03-28T19:47:08.751Z,13.73
2019-03-28T19:49:43.792Z,17.07
2019-03-28T19:52:15.809Z,16.17
2019-03-28T19:54:49.407Z,20.63
2019-03-28T19:57:21.503Z,16.53
2019-03-28T19:59:53.502Z,17.67
2019-03-28T20:02:25.536Z,22.07
2019-03-28T20:04:57.578Z,16.20
2019-03-28T20:07:32.410Z,20.27
2019-03-28T20:10:15.851Z,16.97
2019-03-28T20:12:38.298Z,16.67
2019-03-28T20:15:10.569Z,18.50
2019-03-28T20:17:43.219Z,21.20
2019-03-28T20:20:16.199Z,20.53
2019-03-28T20:22:51.036Z,12.37
2019-03-28T20:25:22.976Z,17.63
2019-03-28T20:27:54.960Z,14.90
2019-03-28T20:30:27.910Z,22.77
2019-03-28T20:33:00.297Z,25.50
2019-03-28T20:35:35.378Z,23.57
2019-03-28T20:38:07.648Z,21.67
2019-03-28T20:40:43.095Z,22.17
2019-03-28T20:43:13.469Z,18.80
2019-03-28T20:45:45.540Z,18.33
2019-03-28T20:48:17.550Z,21.87
2019-03-28T20:50:49.565Z,22.67
2019-03-28T20:53:23.150Z,32.20
2019-03-28T20:55:55.317Z,39.03
2019-03-28T20:58:27.341Z,28.07
2019-03-28T21:00:59.351Z,24.53
2019-03-28T21:03:33.133Z,24.83
2019-03-28T21:06:15.023Z,29.97
2019-03-28T21:08:42.170Z,27.37
2019-03-28T21:11:16.397Z,29.30
2019-03-28T21:13:53.480Z,32.00
2019-03-28T21:16:34.453Z,35.33
2019-03-28T21:19:01.843Z,30.97
2019-03-28T21:21:34.004Z,25.37
2019-03-28T21:24:06.049Z,29.43
2019-03-28T21:26:41.322Z,32.20
2019-03-28T21:29:20.913Z,37.40
2019-03-28T21:31:52.998Z,33.53
2019-03-28T21:34:25.022Z,37.83
2019-03-28T21:36:56.959Z,28.67
2019-03-28T21:39:32.077Z,28.37
2019-03-28T21:42:07.381Z,27.43
2019-03-28T21:44:39.625Z,23.73
2019-03-28T21:47:11.973Z,25.47
2019-03-28T21:49:43.967Z,28.60
2019-03-28T21:52:15.990Z,22.70
2019-03-28T21:54:49.222Z,28.30
2019-03-28T21:57:21.159Z,24.57
2019-03-28T21:59:53.128Z,23.57
2019-03-28T22:02:25.131Z,27.93
2019-03-28T22:04:57.288Z,26.07
2019-03-28T22:07:30.206Z,24.33
2019-03-28T22:10:02.274Z,27.97
2019-03-28T22:12:34.540Z,22.50
2019-03-28T22:15:09.583Z,24.83
2019-03-28T22:17:44.751Z,21.47
2019-03-28T22:20:17.913Z,26.13
2019-03-28T22:22:49.919Z,21.70
2019-03-28T22:25:23.452Z,21.63
2019-03-28T22:27:55.522Z,18.10
2019-03-28T22:30:27.622Z,19.03
2019-03-28T22:32:59.569Z,18.60
2019-03-28T22:35:31.620Z,20.83
2019-03-28T22:38:05.721Z,19.77
2019-03-28T22:40:37.377Z,18.43
2019-03-28T22:43:09.328Z,20.73
2019-03-28T22:45:41.327Z,25.60
2019-03-28T22:48:15.762Z,21.40
2019-03-28T22:50:50.188Z,20.67
2019-03-28T22:53:27.545Z,18.73
2019-03-28T22:55:59.501Z,20.53
2019-03-28T22:58:31.529Z,19.33
2019-03-28T23:01:03.865Z,18.17
2019-03-28T23:03:38.006Z,15.77
2019-03-28T23:06:10.035Z,23.23
2019-03-28T23:08:43.614Z,16.50
2019-03-28T23:11:15.571Z,18.53
2019-03-28T23:13:52.931Z,20.30
2019-03-28T23:16:29.531Z,16.47
2019-03-28T23:19:01.606Z,17.10
2019-03-28T23:21:33.567Z,15.20
2019-03-28T23:24:05.608Z,17.17
2019-03-28T23:26:37.754Z,17.57
2019-03-28T23:29:10.224Z,15.63
2019-03-28T23:31:43.094Z,15.90
2019-03-28T23:34:15.127Z,16.27
2019-03-28T23:36:47.218Z,15.47
2019-03-28T23:39:22.394Z,13.70
2019-03-28T23:41:54.509Z,14.53
2019-03-28T23:44:27.934Z,18.23
2019-03-28T23:47:00.084Z,14.50
2019-03-28T23:49:32.149Z,15.63
2019-03-28T23:52:08.994Z,15.47
2019-03-28T23:54:42.581Z,18.00
2019-03-28T23:57:14.584Z,13.50
2019-03-28T23:59:49.506Z,15.70
